sensor_id;sensor_type;location;lat;lon;timestamp;temperature;humidity
64843;DHT22;51310;52.198;5.422;2022-12-05T00:04:04;3.70;99.90
64843;DHT22;51310;52.198;5.422;2022-12-05T00:06:39;3.70;99.90
64843;DHT22;51310;52.198;5.422;2022-12-05T00:09:08;3.70;99.90
64843;DHT22;51310;52.198;5.422;2022-12-05T00:11:37;3.80;99.90
64843;DHT22;51310;52.198;5.422;2022-12-05T00:14:07;3.60;99.90
64843;DHT22;51310;52.198;5.422;2022-12-05T00:16:36;3.80;99.90
64843;DHT22;51310;52.198;5.422;2022-12-05T00:19:05;3.80;99.90
64843;DHT22;51310;52.198;5.422;2022-12-05T00:21:37;3.80;99.90
64843;DHT22;51310;52.198;5.422;2022-12-05T00:24:06;3.80;99.90
64843;DHT22;51310;52.198;5.422;2022-12-05T00:26:35;3.80;99.90
64843;DHT22;51310;52.198;5.422;2022-12-05T00:29:01;3.80;99.90
64843;DHT22;51310;52.198;5.422;2022-12-05T00:31:27;3.80;99.90
64843;DHT22;51310;52.198;5.422;2022-12-05T00:33:53;3.80;99.90
64843;DHT22;51310;52.198;5.422;2022-12-05T00:36:25;3.90;99.90
64843;DHT22;51310;52.198;5.422;2022-12-05T00:38:54;3.80;99.90
64843;DHT22;51310;52.198;5.422;2022-12-05T00:41:25;3.90;99.90
64843;DHT22;51310;52.198;5.422;2022-12-05T00:43:53;3.90;99.90
64843;DHT22;51310;52.198;5.422;2022-12-05T00:46:22;3.80;99.90
64843;DHT22;51310;52.198;5.422;2022-12-05T00:48:52;3.90;99.90
64843;DHT22;51310;52.198;5.422;2022-12-05T00:51:22;3.90;99.90
64843;DHT22;51310;52.198;5.422;2022-12-05T00:53:56;3.90;99.90
64843;DHT22;51310;52.198;5.422;2022-12-05T00:56:25;3.80;99.90
64843;DHT22;51310;52.198;5.422;2022-12-05T00:58:54;3.80;99.90
64843;DHT22;51310;52.198;5.422;2022-12-05T01:01:24;3.80;99.90
64843;DHT22;51310;52.198;5.422;2022-12-05T01:04:07;3.90;99.90
64843;DHT22;51310;52.198;5.422;2022-12-05T01:06:37;3.90;99.90
64843;DHT22;51310;52.198;5.422;2022-12-05T01:09:04;3.80;99.90
64843;DHT22;51310;52.198;5.422;2022-12-05T01:11:30;3.80;99.90
64843;DHT22;51310;52.198;5.422;2022-12-05T01:13:57;3.80;99.90
64843;DHT22;51310;52.198;5.422;2022-12-05T01:16:29;3.80;99.90
64843;DHT22;51310;52.198;5.422;2022-12-05T01:19:02;3.80;99.90
64843;DHT22;51310;52.198;5.422;2022-12-05T01:21:36;3.80;99.90
64843;DHT22;51310;52.198;5.422;2022-12-05T01:24:02;3.70;99.90
64843;DHT22;51310;52.198;5.422;2022-12-05T01:26:28;3.80;99.90
64843;DHT22;51310;52.198;5.422;2022-12-05T01:28:55;3.70;99.90
64843;DHT22;51310;52.198;5.422;2022-12-05T01:31:24;5.20;99.90
64843;DHT22;51310;52.198;5.422;2022-12-05T01:34:00;5.80;99.90
64843;DHT22;51310;52.198;5.422;2022-12-05T01:36:30;3.70;99.90
64843;DHT22;51310;52.198;5.422;2022-12-05T01:38:56;5.00;99.90
64843;DHT22;51310;52.198;5.422;2022-12-05T01:41:29;4.60;99.90
64843;DHT22;51310;52.198;5.422;2022-12-05T01:44:06;3.80;99.90
64843;DHT22;51310;52.198;5.422;2022-12-05T01:46:54;3.70;99.90
64843;DHT22;51310;52.198;5.422;2022-12-05T01:49:32;3.80;99.90
64843;DHT22;51310;52.198;5.422;2022-12-05T01:52:09;3.70;99.90
64843;DHT22;51310;52.198;5.422;2022-12-05T01:54:45;3.70;99.90
64843;DHT22;51310;52.198;5.422;2022-12-05T01:57:15;5.90;99.90
64843;DHT22;51310;52.198;5.422;2022-12-05T01:59:53;3.70;99.90
64843;DHT22;51310;52.198;5.422;2022-12-05T02:02:26;3.70;99.90
64843;DHT22;51310;52.198;5.422;2022-12-05T02:05:30;3.70;99.90
64843;DHT22;51310;52.198;5.422;2022-12-05T02:08:07;3.70;99.90
64843;DHT22;51310;52.198;5.422;2022-12-05T02:10:41;3.70;99.90
64843;DHT22;51310;52.198;5.422;2022-12-05T02:16:35;3.80;99.90
64843;DHT22;51310;52.198;5.422;2022-12-05T02:19:46;3.80;99.90
64843;DHT22;51310;52.198;5.422;2022-12-05T02:29:08;3.80;99.90
64843;DHT22;51310;52.198;5.422;2022-12-05T02:32:36;6.20;99.90
64843;DHT22;51310;52.198;5.422;2022-12-05T02:35:45;3.80;99.90
64843;DHT22;51310;52.198;5.422;2022-12-05T02:38:44;3.90;99.90
64843;DHT22;51310;52.198;5.422;2022-12-05T02:41:34;3.90;99.90
64843;DHT22;51310;52.198;5.422;2022-12-05T02:44:30;3.90;99.90
64843;DHT22;51310;52.198;5.422;2022-12-05T02:47:07;3.90;99.90
64843;DHT22;51310;52.198;5.422;2022-12-05T02:49:35;3.90;99.90
64843;DHT22;51310;52.198;5.422;2022-12-05T02:52:04;3.90;99.90
64843;DHT22;51310;52.198;5.422;2022-12-05T02:54:37;3.90;99.90
64843;DHT22;51310;52.198;5.422;2022-12-05T02:57:07;3.90;99.90
64843;DHT22;51310;52.198;5.422;2022-12-05T02:59:36;3.90;99.90
64843;DHT22;51310;52.198;5.422;2022-12-05T03:02:02;3.90;99.90
64843;DHT22;51310;52.198;5.422;2022-12-05T03:04:29;5.60;99.90
64843;DHT22;51310;52.198;5.422;2022-12-05T03:07:06;3.90;99.90
64843;DHT22;51310;52.198;5.422;2022-12-05T03:09:44;3.80;99.90
64843;DHT22;51310;52.198;5.422;2022-12-05T03:12:28;3.90;99.90
64843;DHT22;51310;52.198;5.422;2022-12-05T03:15:17;3.90;99.90
64843;DHT22;51310;52.198;5.422;2022-12-05T03:17:56;3.90;99.90
64843;DHT22;51310;52.198;5.422;2022-12-05T03:21:10;3.90;99.90
64843;DHT22;51310;52.198;5.422;2022-12-05T03:26:56;4.00;99.90
64843;DHT22;51310;52.198;5.422;2022-12-05T03:29:52;4.00;99.90
64843;DHT22;51310;52.198;5.422;2022-12-05T03:32:48;4.00;99.90
64843;DHT22;51310;52.198;5.422;2022-12-05T03:35:40;3.90;99.90
64843;DHT22;51310;52.198;5.422;2022-12-05T03:38:29;4.00;99.90
64843;DHT22;51310;52.198;5.422;2022-12-05T03:41:13;4.00;99.90
64843;DHT22;51310;52.198;5.422;2022-12-05T03:44:13;4.10;99.90
64843;DHT22;51310;52.198;5.422;2022-12-05T03:46:58;4.10;99.90
64843;DHT22;51310;52.198;5.422;2022-12-05T03:49:35;4.10;99.90
64843;DHT22;51310;52.198;5.422;2022-12-05T03:52:12;4.10;99.90
64843;DHT22;51310;52.198;5.422;2022-12-05T03:54:50;4.10;99.90
64843;DHT22;51310;52.198;5.422;2022-12-05T03:57:27;4.20;99.90
64843;DHT22;51310;52.198;5.422;2022-12-05T04:00:36;4.10;99.90
64843;DHT22;51310;52.198;5.422;2022-12-05T04:03:19;4.20;99.90
64843;DHT22;51310;52.198;5.422;2022-12-05T04:06:05;4.20;99.90
64843;DHT22;51310;52.198;5.422;2022-12-05T04:08:53;4.20;99.90
64843;DHT22;51310;52.198;5.422;2022-12-05T04:11:26;4.20;99.90
64843;DHT22;51310;52.198;5.422;2022-12-05T04:14:05;4.20;99.90
64843;DHT22;51310;52.198;5.422;2022-12-05T04:16:45;4.30;99.90
64843;DHT22;51310;52.198;5.422;2022-12-05T04:19:52;4.30;99.90
64843;DHT22;51310;52.198;5.422;2022-12-05T04:22:44;4.30;99.90
64843;DHT22;51310;52.198;5.422;2022-12-05T04:25:13;4.40;99.90
64843;DHT22;51310;52.198;5.422;2022-12-05T04:28:04;4.40;99.90
64843;DHT22;51310;52.198;5.422;2022-12-05T04:31:02;4.30;99.90
64843;DHT22;51310;52.198;5.422;2022-12-05T04:33:51;4.30;99.90
64843;DHT22;51310;52.198;5.422;2022-12-05T04:36:28;4.40;99.90
64843;DHT22;51310;52.198;5.422;2022-12-05T04:41:50;4.40;99.90
64843;DHT22;51310;52.198;5.422;2022-12-05T04:44:33;4.40;99.90
64843;DHT22;51310;52.198;5.422;2022-12-05T04:47:07;4.40;99.90
64843;DHT22;51310;52.198;5.422;2022-12-05T04:49:37;4.40;99.90
64843;DHT22;51310;52.198;5.422;2022-12-05T04:52:10;4.50;99.90
64843;DHT22;51310;52.198;5.422;2022-12-05T05:06:13;4.40;99.90
64843;DHT22;51310;52.198;5.422;2022-12-05T05:08:51;4.50;99.90
64843;DHT22;51310;52.198;5.422;2022-12-05T05:11:25;4.50;99.90
64843;DHT22;51310;52.198;5.422;2022-12-05T05:13:57;4.50;99.90
64843;DHT22;51310;52.198;5.422;2022-12-05T05:16:36;4.50;99.90
64843;DHT22;51310;52.198;5.422;2022-12-05T05:19:05;6.40;99.90
64843;DHT22;51310;52.198;5.422;2022-12-05T05:21:37;4.60;99.90
64843;DHT22;51310;52.198;5.422;2022-12-05T05:24:07;4.60;99.90
64843;DHT22;51310;52.198;5.422;2022-12-05T05:26:37;4.60;99.90
64843;DHT22;51310;52.198;5.422;2022-12-05T05:29:06;4.60;99.90
64843;DHT22;51310;52.198;5.422;2022-12-05T05:31:38;4.60;99.90
64843;DHT22;51310;52.198;5.422;2022-12-05T05:34:05;4.60;99.90
64843;DHT22;51310;52.198;5.422;2022-12-05T05:36:31;4.60;99.90
64843;DHT22;51310;52.198;5.422;2022-12-05T05:38:59;4.70;99.90
64843;DHT22;51310;52.198;5.422;2022-12-05T05:41:29;4.70;99.90
64843;DHT22;51310;52.198;5.422;2022-12-05T05:43:59;4.70;99.90
64843;DHT22;51310;52.198;5.422;2022-12-05T05:46:27;4.80;99.90
64843;DHT22;51310;52.198;5.422;2022-12-05T05:48:56;4.70;99.90
64843;DHT22;51310;52.198;5.422;2022-12-05T05:51:23;4.80;99.90
64843;DHT22;51310;52.198;5.422;2022-12-05T05:53:52;4.80;99.90
64843;DHT22;51310;52.198;5.422;2022-12-05T05:56:19;4.80;99.90
64843;DHT22;51310;52.198;5.422;2022-12-05T05:58:46;4.80;99.90
64843;DHT22;51310;52.198;5.422;2022-12-05T06:01:17;4.90;99.90
64843;DHT22;51310;52.198;5.422;2022-12-05T06:03:47;4.90;99.90
64843;DHT22;51310;52.198;5.422;2022-12-05T06:06:15;4.90;99.90
64843;DHT22;51310;52.198;5.422;2022-12-05T06:08:42;4.90;99.90
64843;DHT22;51310;52.198;5.422;2022-12-05T06:11:13;4.90;99.90
64843;DHT22;51310;52.198;5.422;2022-12-05T06:13:45;4.90;99.90
64843;DHT22;51310;52.198;5.422;2022-12-05T06:16:13;4.90;99.90
64843;DHT22;51310;52.198;5.422;2022-12-05T06:18:41;4.90;99.90
64843;DHT22;51310;52.198;5.422;2022-12-05T06:21:09;4.90;99.90
64843;DHT22;51310;52.198;5.422;2022-12-05T06:23:36;4.90;99.90
64843;DHT22;51310;52.198;5.422;2022-12-05T06:26:04;5.00;99.90
64843;DHT22;51310;52.198;5.422;2022-12-05T06:28:35;5.00;99.90
64843;DHT22;51310;52.198;5.422;2022-12-05T06:31:12;5.00;99.90
64843;DHT22;51310;52.198;5.422;2022-12-05T06:33:40;5.00;99.90
64843;DHT22;51310;52.198;5.422;2022-12-05T06:36:09;5.00;99.90
64843;DHT22;51310;52.198;5.422;2022-12-05T06:38:41;5.00;99.90
64843;DHT22;51310;52.198;5.422;2022-12-05T06:41:11;5.00;99.90
64843;DHT22;51310;52.198;5.422;2022-12-05T06:43:40;5.00;99.90
64843;DHT22;51310;52.198;5.422;2022-12-05T06:46:08;5.00;99.90
64843;DHT22;51310;52.198;5.422;2022-12-05T06:48:36;4.90;99.90
64843;DHT22;51310;52.198;5.422;2022-12-05T06:51:02;5.00;99.90
64843;DHT22;51310;52.198;5.422;2022-12-05T06:53:28;5.00;99.90
64843;DHT22;51310;52.198;5.422;2022-12-05T06:55:56;5.00;99.90
64843;DHT22;51310;52.198;5.422;2022-12-05T06:58:25;5.00;99.90
64843;DHT22;51310;52.198;5.422;2022-12-05T07:00:52;5.00;99.90
64843;DHT22;51310;52.198;5.422;2022-12-05T07:03:36;5.00;99.90
64843;DHT22;51310;52.198;5.422;2022-12-05T07:06:04;5.00;99.90
64843;DHT22;51310;52.198;5.422;2022-12-05T07:08:32;5.00;99.90
64843;DHT22;51310;52.198;5.422;2022-12-05T07:10:59;5.00;99.90
64843;DHT22;51310;52.198;5.422;2022-12-05T07:13:26;5.00;99.90
64843;DHT22;51310;52.198;5.422;2022-12-05T07:15:52;5.00;99.90
64843;DHT22;51310;52.198;5.422;2022-12-05T07:18:17;5.00;99.90
64843;DHT22;51310;52.198;5.422;2022-12-05T07:20:43;5.00;99.90
64843;DHT22;51310;52.198;5.422;2022-12-05T07:23:10;5.00;99.90
64843;DHT22;51310;52.198;5.422;2022-12-05T07:25:40;5.10;99.90
64843;DHT22;51310;52.198;5.422;2022-12-05T07:28:06;5.00;99.90
64843;DHT22;51310;52.198;5.422;2022-12-05T07:30:33;5.00;99.90
64843;DHT22;51310;52.198;5.422;2022-12-05T07:32:59;5.10;99.90
64843;DHT22;51310;52.198;5.422;2022-12-05T07:35:25;5.10;99.90
64843;DHT22;51310;52.198;5.422;2022-12-05T07:37:51;5.10;99.90
64843;DHT22;51310;52.198;5.422;2022-12-05T07:40:17;5.20;99.90
64843;DHT22;51310;52.198;5.422;2022-12-05T07:42:43;5.10;99.90
64843;DHT22;51310;52.198;5.422;2022-12-05T07:45:09;5.10;99.90
64843;DHT22;51310;52.198;5.422;2022-12-05T07:47:35;5.10;99.90
64843;DHT22;51310;52.198;5.422;2022-12-05T07:50:01;5.20;99.90
64843;DHT22;51310;52.198;5.422;2022-12-05T07:52:26;5.20;99.90
64843;DHT22;51310;52.198;5.422;2022-12-05T07:54:52;5.20;99.90
64843;DHT22;51310;52.198;5.422;2022-12-05T07:57:18;5.20;99.90
64843;DHT22;51310;52.198;5.422;2022-12-05T07:59:44;5.20;99.90
64843;DHT22;51310;52.198;5.422;2022-12-05T08:02:10;5.30;99.90
64843;DHT22;51310;52.198;5.422;2022-12-05T08:04:36;5.30;99.90
64843;DHT22;51310;52.198;5.422;2022-12-05T08:07:02;6.20;99.90
64843;DHT22;51310;52.198;5.422;2022-12-05T08:09:28;5.20;99.90
64843;DHT22;51310;52.198;5.422;2022-12-05T08:11:54;5.30;99.90
64843;DHT22;51310;52.198;5.422;2022-12-05T08:14:19;5.30;99.90
64843;DHT22;51310;52.198;5.422;2022-12-05T08:16:45;5.30;99.90
64843;DHT22;51310;52.198;5.422;2022-12-05T08:19:12;5.30;99.90
64843;DHT22;51310;52.198;5.422;2022-12-05T08:21:38;5.30;99.90
64843;DHT22;51310;52.198;5.422;2022-12-05T08:24:05;5.30;99.90
64843;DHT22;51310;52.198;5.422;2022-12-05T08:26:33;5.30;99.90
64843;DHT22;51310;52.198;5.422;2022-12-05T08:29:03;5.30;99.90
64843;DHT22;51310;52.198;5.422;2022-12-05T08:31:39;5.30;99.90
64843;DHT22;51310;52.198;5.422;2022-12-05T08:34:12;6.20;99.90
64843;DHT22;51310;52.198;5.422;2022-12-05T08:36:39;5.30;99.90
64843;DHT22;51310;52.198;5.422;2022-12-05T08:39:07;5.30;99.90
64843;DHT22;51310;52.198;5.422;2022-12-05T08:41:38;5.40;99.90
64843;DHT22;51310;52.198;5.422;2022-12-05T08:44:05;5.40;99.90
64843;DHT22;51310;52.198;5.422;2022-12-05T08:46:35;5.40;99.90
64843;DHT22;51310;52.198;5.422;2022-12-05T08:49:04;5.40;99.90
64843;DHT22;51310;52.198;5.422;2022-12-05T08:51:30;5.40;99.90
64843;DHT22;51310;52.198;5.422;2022-12-05T08:53:56;7.40;99.90
64843;DHT22;51310;52.198;5.422;2022-12-05T08:56:23;6.90;99.90
64843;DHT22;51310;52.198;5.422;2022-12-05T08:58:49;5.40;99.90
64843;DHT22;51310;52.198;5.422;2022-12-05T09:01:20;5.50;99.90
64843;DHT22;51310;52.198;5.422;2022-12-05T09:03:46;5.50;99.90
64843;DHT22;51310;52.198;5.422;2022-12-05T09:06:18;5.60;99.90
64843;DHT22;51310;52.198;5.422;2022-12-05T09:08:47;5.50;99.90
64843;DHT22;51310;52.198;5.422;2022-12-05T09:11:20;5.50;99.90
64843;DHT22;51310;52.198;5.422;2022-12-05T09:13:50;5.50;99.90
64843;DHT22;51310;52.198;5.422;2022-12-05T09:16:20;5.50;99.90
64843;DHT22;51310;52.198;5.422;2022-12-05T09:18:51;5.60;99.90
64843;DHT22;51310;52.198;5.422;2022-12-05T09:21:23;5.60;99.90
64843;DHT22;51310;52.198;5.422;2022-12-05T09:23:52;5.60;99.90
64843;DHT22;51310;52.198;5.422;2022-12-05T09:26:21;5.60;99.90
64843;DHT22;51310;52.198;5.422;2022-12-05T09:28:49;5.50;99.90
64843;DHT22;51310;52.198;5.422;2022-12-05T09:31:18;5.60;99.90
64843;DHT22;51310;52.198;5.422;2022-12-05T09:33:49;5.60;99.90
64843;DHT22;51310;52.198;5.422;2022-12-05T09:36:21;5.60;99.90
64843;DHT22;51310;52.198;5.422;2022-12-05T09:38:51;5.60;99.90
64843;DHT22;51310;52.198;5.422;2022-12-05T09:47:33;5.70;99.90
64843;DHT22;51310;52.198;5.422;2022-12-05T09:52:59;5.70;99.90
64843;DHT22;51310;52.198;5.422;2022-12-05T09:56:05;5.70;99.90
64843;DHT22;51310;52.198;5.422;2022-12-05T09:58:53;5.80;99.90
64843;DHT22;51310;52.198;5.422;2022-12-05T10:07:28;5.70;99.90
64843;DHT22;51310;52.198;5.422;2022-12-05T10:10:26;5.80;99.90
64843;DHT22;51310;52.198;5.422;2022-12-05T10:13:12;5.80;99.90
64843;DHT22;51310;52.198;5.422;2022-12-05T10:16:03;5.80;99.90
64843;DHT22;51310;52.198;5.422;2022-12-05T10:21:35;5.70;99.90
64843;DHT22;51310;52.198;5.422;2022-12-05T10:24:22;5.80;99.90
64843;DHT22;51310;52.198;5.422;2022-12-05T10:27:09;5.80;99.90
64843;DHT22;51310;52.198;5.422;2022-12-05T10:30:12;5.80;99.90
64843;DHT22;51310;52.198;5.422;2022-12-05T10:32:56;5.90;99.90
64843;DHT22;51310;52.198;5.422;2022-12-05T10:35:27;5.80;99.90
64843;DHT22;51310;52.198;5.422;2022-12-05T10:40:50;5.80;99.90
64843;DHT22;51310;52.198;5.422;2022-12-05T10:43:29;5.80;99.90
64843;DHT22;51310;52.198;5.422;2022-12-05T10:45:58;5.70;99.90
64843;DHT22;51310;52.198;5.422;2022-12-05T10:48:25;5.80;99.90
64843;DHT22;51310;52.198;5.422;2022-12-05T10:50:54;5.70;99.90
64843;DHT22;51310;52.198;5.422;2022-12-05T10:53:28;5.60;99.90
64843;DHT22;51310;52.198;5.422;2022-12-05T10:56:35;5.70;99.90
64843;DHT22;51310;52.198;5.422;2022-12-05T10:59:03;5.70;99.90
64843;DHT22;51310;52.198;5.422;2022-12-05T11:01:31;5.60;99.90
64843;DHT22;51310;52.198;5.422;2022-12-05T11:04:00;5.70;99.90
64843;DHT22;51310;52.198;5.422;2022-12-05T11:07:02;5.70;99.90
64843;DHT22;51310;52.198;5.422;2022-12-05T11:09:30;5.80;99.90
64843;DHT22;51310;52.198;5.422;2022-12-05T11:15:21;5.80;99.90
64843;DHT22;51310;52.198;5.422;2022-12-05T11:17:52;5.70;99.90
64843;DHT22;51310;52.198;5.422;2022-12-05T11:22:50;5.70;99.90
64843;DHT22;51310;52.198;5.422;2022-12-05T11:25:35;7.90;99.90
64843;DHT22;51310;52.198;5.422;2022-12-05T11:31:02;5.70;99.90
64843;DHT22;51310;52.198;5.422;2022-12-05T11:36:50;5.80;99.90
64843;DHT22;51310;52.198;5.422;2022-12-05T11:39:21;6.10;99.90
64843;DHT22;51310;52.198;5.422;2022-12-05T11:52:01;5.70;99.90
64843;DHT22;51310;52.198;5.422;2022-12-05T11:55:24;5.70;99.90
64843;DHT22;51310;52.198;5.422;2022-12-05T12:10:49;5.70;99.90
64843;DHT22;51310;52.198;5.422;2022-12-05T12:13:46;5.80;99.90
64843;DHT22;51310;52.198;5.422;2022-12-05T12:22:45;5.70;99.90
64843;DHT22;51310;52.198;5.422;2022-12-05T12:25:48;5.70;99.90
64843;DHT22;51310;52.198;5.422;2022-12-05T12:29:01;5.70;99.90
64843;DHT22;51310;52.198;5.422;2022-12-05T12:38:46;5.60;99.90
64843;DHT22;51310;52.198;5.422;2022-12-05T12:47:58;5.70;99.90
64843;DHT22;51310;52.198;5.422;2022-12-05T12:50:38;5.60;99.90
64843;DHT22;51310;52.198;5.422;2022-12-05T13:07:54;5.70;99.90
64843;DHT22;51310;52.198;5.422;2022-12-05T13:10:41;5.70;99.90
64843;DHT22;51310;52.198;5.422;2022-12-05T13:13:15;8.10;99.90
64843;DHT22;51310;52.198;5.422;2022-12-05T13:15:50;5.70;99.90
64843;DHT22;51310;52.198;5.422;2022-12-05T13:18:23;5.70;99.90
64843;DHT22;51310;52.198;5.422;2022-12-05T13:20:58;5.60;99.90
64843;DHT22;51310;52.198;5.422;2022-12-05T13:23:30;5.60;99.90
64843;DHT22;51310;52.198;5.422;2022-12-05T13:26:07;6.10;99.90
64843;DHT22;51310;52.198;5.422;2022-12-05T13:29:03;5.60;99.90
64843;DHT22;51310;52.198;5.422;2022-12-05T13:31:44;5.70;99.90
64843;DHT22;51310;52.198;5.422;2022-12-05T13:37:09;5.50;99.90
64843;DHT22;51310;52.198;5.422;2022-12-05T13:43:11;5.60;99.90
64843;DHT22;51310;52.198;5.422;2022-12-05T13:45:58;5.50;99.90
64843;DHT22;51310;52.198;5.422;2022-12-05T13:48:33;5.60;99.90
64843;DHT22;51310;52.198;5.422;2022-12-05T13:51:23;5.50;99.90
64843;DHT22;51310;52.198;5.422;2022-12-05T13:54:18;5.50;99.90
64843;DHT22;51310;52.198;5.422;2022-12-05T14:15:47;5.60;99.90
64843;DHT22;51310;52.198;5.422;2022-12-05T14:24:25;5.70;99.90
64843;DHT22;51310;52.198;5.422;2022-12-05T14:30:24;5.70;99.90
64843;DHT22;51310;52.198;5.422;2022-12-05T14:33:15;5.60;99.90
64843;DHT22;51310;52.198;5.422;2022-12-05T14:35:47;5.70;99.90
64843;DHT22;51310;52.198;5.422;2022-12-05T14:38:27;5.70;99.90
64843;DHT22;51310;52.198;5.422;2022-12-05T14:41:15;5.60;99.90
64843;DHT22;51310;52.198;5.422;2022-12-05T14:43:58;5.60;99.90
64843;DHT22;51310;52.198;5.422;2022-12-05T14:46:31;5.60;99.90
64843;DHT22;51310;52.198;5.422;2022-12-05T14:52:24;5.60;99.90
64843;DHT22;51310;52.198;5.422;2022-12-05T14:54:57;5.60;99.90
64843;DHT22;51310;52.198;5.422;2022-12-05T14:57:47;5.60;99.90
64843;DHT22;51310;52.198;5.422;2022-12-05T15:00:20;8.20;99.90
64843;DHT22;51310;52.198;5.422;2022-12-05T15:02:49;5.60;99.90
64843;DHT22;51310;52.198;5.422;2022-12-05T15:07:59;5.60;99.90
64843;DHT22;51310;52.198;5.422;2022-12-05T15:10:31;5.60;99.90
64843;DHT22;51310;52.198;5.422;2022-12-05T15:13:15;5.70;99.90
64843;DHT22;51310;52.198;5.422;2022-12-05T15:15:58;5.70;99.90
64843;DHT22;51310;52.198;5.422;2022-12-05T15:18:43;5.70;99.90
64843;DHT22;51310;52.198;5.422;2022-12-05T15:21:28;5.70;99.90
64843;DHT22;51310;52.198;5.422;2022-12-05T15:24:10;8.30;99.90
64843;DHT22;51310;52.198;5.422;2022-12-05T15:26:40;5.60;99.90
64843;DHT22;51310;52.198;5.422;2022-12-05T15:31:57;8.30;99.90
64843;DHT22;51310;52.198;5.422;2022-12-05T15:35:01;5.70;99.90
64843;DHT22;51310;52.198;5.422;2022-12-05T15:37:39;5.70;99.90
64843;DHT22;51310;52.198;5.422;2022-12-05T15:40:34;5.70;99.90
64843;DHT22;51310;52.198;5.422;2022-12-05T15:43:25;5.70;99.90
64843;DHT22;51310;52.198;5.422;2022-12-05T15:46:25;5.70;99.90
64843;DHT22;51310;52.198;5.422;2022-12-05T15:48:58;5.60;99.90
64843;DHT22;51310;52.198;5.422;2022-12-05T15:51:45;5.60;99.90
64843;DHT22;51310;52.198;5.422;2022-12-05T15:54:19;5.60;99.90
64843;DHT22;51310;52.198;5.422;2022-12-05T15:57:15;5.60;99.90
64843;DHT22;51310;52.198;5.422;2022-12-05T15:59:55;5.60;99.90
64843;DHT22;51310;52.198;5.422;2022-12-05T16:02:46;5.50;99.90
64843;DHT22;51310;52.198;5.422;2022-12-05T16:05:30;5.60;99.90
64843;DHT22;51310;52.198;5.422;2022-12-05T16:08:09;5.70;99.90
64843;DHT22;51310;52.198;5.422;2022-12-05T16:10:35;5.60;99.90
64843;DHT22;51310;52.198;5.422;2022-12-05T16:13:06;5.60;99.90
64843;DHT22;51310;52.198;5.422;2022-12-05T16:15:42;5.70;99.90
64843;DHT22;51310;52.198;5.422;2022-12-05T16:18:29;5.70;99.90
64843;DHT22;51310;52.198;5.422;2022-12-05T16:20:56;5.80;99.90
64843;DHT22;51310;52.198;5.422;2022-12-05T16:23:28;5.80;99.90
64843;DHT22;51310;52.198;5.422;2022-12-05T16:28:38;5.90;99.90
64843;DHT22;51310;52.198;5.422;2022-12-05T16:31:05;5.80;99.90
64843;DHT22;51310;52.198;5.422;2022-12-05T16:33:31;5.80;99.90
64843;DHT22;51310;52.198;5.422;2022-12-05T16:36:08;5.80;99.90
64843;DHT22;51310;52.198;5.422;2022-12-05T16:38:37;5.80;99.90
64843;DHT22;51310;52.198;5.422;2022-12-05T16:41:09;5.80;99.90
64843;DHT22;51310;52.198;5.422;2022-12-05T16:48:38;5.80;99.90
64843;DHT22;51310;52.198;5.422;2022-12-05T16:53:40;5.70;99.90
64843;DHT22;51310;52.198;5.422;2022-12-05T16:56:16;5.80;99.90
64843;DHT22;51310;52.198;5.422;2022-12-05T16:58:47;5.80;99.90
64843;DHT22;51310;52.198;5.422;2022-12-05T17:01:21;5.70;99.90
64843;DHT22;51310;52.198;5.422;2022-12-05T17:03:50;5.80;99.90
64843;DHT22;51310;52.198;5.422;2022-12-05T17:06:21;5.80;99.90
64843;DHT22;51310;52.198;5.422;2022-12-05T17:08:49;5.70;99.90
64843;DHT22;51310;52.198;5.422;2022-12-05T17:11:20;5.80;99.90
64843;DHT22;51310;52.198;5.422;2022-12-05T17:13:50;5.70;99.90
64843;DHT22;51310;52.198;5.422;2022-12-05T17:16:18;5.80;99.90
64843;DHT22;51310;52.198;5.422;2022-12-05T17:18:45;5.80;99.90
64843;DHT22;51310;52.198;5.422;2022-12-05T17:21:20;5.80;99.90
64843;DHT22;51310;52.198;5.422;2022-12-05T17:23:50;5.80;99.90
64843;DHT22;51310;52.198;5.422;2022-12-05T17:26:18;5.90;99.90
64843;DHT22;51310;52.198;5.422;2022-12-05T17:28:46;5.80;99.90
64843;DHT22;51310;52.198;5.422;2022-12-05T17:31:13;5.70;99.90
64843;DHT22;51310;52.198;5.422;2022-12-05T17:33:47;5.90;99.90
64843;DHT22;51310;52.198;5.422;2022-12-05T17:36:14;5.90;99.90
64843;DHT22;51310;52.198;5.422;2022-12-05T17:38:40;5.70;99.90
64843;DHT22;51310;52.198;5.422;2022-12-05T17:41:06;5.80;99.90
64843;DHT22;51310;52.198;5.422;2022-12-05T17:43:33;5.70;99.90
64843;DHT22;51310;52.198;5.422;2022-12-05T17:46:01;5.80;99.90
64843;DHT22;51310;52.198;5.422;2022-12-05T17:48:27;5.90;99.90
64843;DHT22;51310;52.198;5.422;2022-12-05T17:50:54;5.90;99.90
64843;DHT22;51310;52.198;5.422;2022-12-05T17:53:23;6.00;99.90
64843;DHT22;51310;52.198;5.422;2022-12-05T17:55:49;6.00;99.90
64843;DHT22;51310;52.198;5.422;2022-12-05T17:58:16;5.80;99.90
64843;DHT22;51310;52.198;5.422;2022-12-05T18:00:43;5.80;99.90
64843;DHT22;51310;52.198;5.422;2022-12-05T18:03:17;5.70;99.90
64843;DHT22;51310;52.198;5.422;2022-12-05T18:05:43;5.90;99.90
64843;DHT22;51310;52.198;5.422;2022-12-05T18:08:11;5.80;99.90
64843;DHT22;51310;52.198;5.422;2022-12-05T18:10:40;5.80;99.90
64843;DHT22;51310;52.198;5.422;2022-12-05T18:13:10;5.90;99.90
64843;DHT22;51310;52.198;5.422;2022-12-05T18:15:37;5.80;99.90
64843;DHT22;51310;52.198;5.422;2022-12-05T18:18:05;5.80;99.90
64843;DHT22;51310;52.198;5.422;2022-12-05T18:20:33;5.90;99.90
64843;DHT22;51310;52.198;5.422;2022-12-05T18:23:00;5.80;99.90
64843;DHT22;51310;52.198;5.422;2022-12-05T18:25:27;5.90;99.90
64843;DHT22;51310;52.198;5.422;2022-12-05T18:27:53;5.80;99.90
64843;DHT22;51310;52.198;5.422;2022-12-05T18:30:20;5.80;99.90
64843;DHT22;51310;52.198;5.422;2022-12-05T18:32:45;5.80;99.90
64843;DHT22;51310;52.198;5.422;2022-12-05T18:35:11;5.80;99.90
64843;DHT22;51310;52.198;5.422;2022-12-05T18:37:38;5.70;99.90
64843;DHT22;51310;52.198;5.422;2022-12-05T18:40:05;5.70;99.90
64843;DHT22;51310;52.198;5.422;2022-12-05T18:42:34;5.90;99.90
64843;DHT22;51310;52.198;5.422;2022-12-05T18:45:00;5.90;99.90
64843;DHT22;51310;52.198;5.422;2022-12-05T18:47:27;5.90;99.90
64843;DHT22;51310;52.198;5.422;2022-12-05T18:49:53;5.80;99.90
64843;DHT22;51310;52.198;5.422;2022-12-05T18:52:18;5.70;99.90
64843;DHT22;51310;52.198;5.422;2022-12-05T18:54:44;5.60;99.90
64843;DHT22;51310;52.198;5.422;2022-12-05T18:57:10;5.80;99.90
64843;DHT22;51310;52.198;5.422;2022-12-05T18:59:37;5.70;99.90
64843;DHT22;51310;52.198;5.422;2022-12-05T19:02:02;5.70;99.90
64843;DHT22;51310;52.198;5.422;2022-12-05T19:04:29;5.70;99.90
64843;DHT22;51310;52.198;5.422;2022-12-05T19:06:59;5.70;99.90
64843;DHT22;51310;52.198;5.422;2022-12-05T19:09:29;5.70;99.90
64843;DHT22;51310;52.198;5.422;2022-12-05T19:11:57;5.80;99.90
64843;DHT22;51310;52.198;5.422;2022-12-05T19:14:26;5.70;99.90
64843;DHT22;51310;52.198;5.422;2022-12-05T19:16:55;5.80;99.90
64843;DHT22;51310;52.198;5.422;2022-12-05T19:19:21;5.70;99.90
64843;DHT22;51310;52.198;5.422;2022-12-05T19:21:47;5.80;99.90
64843;DHT22;51310;52.198;5.422;2022-12-05T19:24:15;5.70;99.90